sensor_id;sensor_type;location;lat;lon;timestamp;P1;durP1;ratioP1;P2;durP2;ratioP2
17598;SDS011;8918;52.092;5.232;2023-01-05T00:01:03;20.33;;;5.20;;
17598;SDS011;8918;52.092;5.232;2023-01-05T00:03:30;26.40;;;5.07;;
17598;SDS011;8918;52.092;5.232;2023-01-05T00:05:59;23.87;;;5.27;;
17598;SDS011;8918;52.092;5.232;2023-01-05T00:08:29;21.97;;;5.10;;
17598;SDS011;8918;52.092;5.232;2023-01-05T00:10:55;29.10;;;4.60;;
17598;SDS011;8918;52.092;5.232;2023-01-05T00:13:39;31.77;;;5.03;;
17598;SDS011;8918;52.092;5.232;2023-01-05T00:16:24;18.60;;;4.57;;
17598;SDS011;8918;52.092;5.232;2023-01-05T00:19:09;27.97;;;5.30;;
17598;SDS011;8918;52.092;5.232;2023-01-05T00:21:54;24.63;;;4.67;;
17598;SDS011;8918;52.092;5.232;2023-01-05T00:24:38;25.07;;;5.13;;
17598;SDS011;8918;52.092;5.232;2023-01-05T00:27:04;18.37;;;4.73;;
17598;SDS011;8918;52.092;5.232;2023-01-05T00:29:29;28.40;;;5.13;;
17598;SDS011;8918;52.092;5.232;2023-01-05T00:31:55;27.93;;;4.67;;
17598;SDS011;8918;52.092;5.232;2023-01-05T00:34:20;23.30;;;4.97;;
17598;SDS011;8918;52.092;5.232;2023-01-05T00:36:46;21.90;;;4.47;;
17598;SDS011;8918;52.092;5.232;2023-01-05T00:39:12;24.13;;;4.60;;
17598;SDS011;8918;52.092;5.232;2023-01-05T00:41:37;20.20;;;4.53;;
17598;SDS011;8918;52.092;5.232;2023-01-05T00:44:03;21.00;;;4.23;;
17598;SDS011;8918;52.092;5.232;2023-01-05T00:46:28;21.53;;;4.70;;
17598;SDS011;8918;52.092;5.232;2023-01-05T00:48:54;20.77;;;4.80;;
17598;SDS011;8918;52.092;5.232;2023-01-05T00:51:19;20.97;;;5.37;;
17598;SDS011;8918;52.092;5.232;2023-01-05T00:53:46;26.40;;;5.10;;
17598;SDS011;8918;52.092;5.232;2023-01-05T00:56:12;24.20;;;5.07;;
17598;SDS011;8918;52.092;5.232;2023-01-05T00:58:41;23.57;;;4.17;;
17598;SDS011;8918;52.092;5.232;2023-01-05T01:01:10;23.23;;;4.53;;
17598;SDS011;8918;52.092;5.232;2023-01-05T01:03:36;24.30;;;4.57;;
17598;SDS011;8918;52.092;5.232;2023-01-05T01:06:02;23.90;;;4.67;;
17598;SDS011;8918;52.092;5.232;2023-01-05T01:08:28;25.70;;;5.00;;
17598;SDS011;8918;52.092;5.232;2023-01-05T01:10:54;27.43;;;4.63;;
17598;SDS011;8918;52.092;5.232;2023-01-05T01:13:19;28.03;;;4.67;;
17598;SDS011;8918;52.092;5.232;2023-01-05T01:15:47;22.43;;;4.57;;
17598;SDS011;8918;52.092;5.232;2023-01-05T01:18:13;22.27;;;4.63;;
17598;SDS011;8918;52.092;5.232;2023-01-05T01:20:38;21.40;;;4.80;;
17598;SDS011;8918;52.092;5.232;2023-01-05T01:23:04;26.93;;;4.73;;
17598;SDS011;8918;52.092;5.232;2023-01-05T01:25:30;23.50;;;5.27;;
17598;SDS011;8918;52.092;5.232;2023-01-05T01:27:55;22.03;;;4.67;;
17598;SDS011;8918;52.092;5.232;2023-01-05T01:30:21;23.87;;;4.33;;
17598;SDS011;8918;52.092;5.232;2023-01-05T01:32:46;23.50;;;4.50;;
17598;SDS011;8918;52.092;5.232;2023-01-05T01:35:12;20.77;;;4.57;;
17598;SDS011;8918;52.092;5.232;2023-01-05T01:37:38;20.57;;;4.13;;
17598;SDS011;8918;52.092;5.232;2023-01-05T01:40:03;21.30;;;4.33;;
17598;SDS011;8918;52.092;5.232;2023-01-05T01:42:30;24.53;;;4.90;;
17598;SDS011;8918;52.092;5.232;2023-01-05T01:45:11;21.57;;;4.23;;
17598;SDS011;8918;52.092;5.232;2023-01-05T01:47:48;26.40;;;4.90;;
17598;SDS011;8918;52.092;5.232;2023-01-05T01:53:11;29.87;;;5.83;;
17598;SDS011;8918;52.092;5.232;2023-01-05T01:55:40;24.67;;;5.17;;
17598;SDS011;8918;52.092;5.232;2023-01-05T01:58:08;21.17;;;5.53;;
17598;SDS011;8918;52.092;5.232;2023-01-05T02:00:40;25.27;;;5.47;;
17598;SDS011;8918;52.092;5.232;2023-01-05T02:03:07;26.23;;;5.43;;
17598;SDS011;8918;52.092;5.232;2023-01-05T02:05:33;30.50;;;5.47;;
17598;SDS011;8918;52.092;5.232;2023-01-05T02:08:02;27.23;;;5.70;;
17598;SDS011;8918;52.092;5.232;2023-01-05T02:10:56;26.60;;;5.13;;
17598;SDS011;8918;52.092;5.232;2023-01-05T02:23:53;25.43;;;4.97;;
17598;SDS011;8918;52.092;5.232;2023-01-05T02:35:29;21.50;;;4.80;;
17598;SDS011;8918;52.092;5.232;2023-01-05T02:40:50;26.30;;;5.43;;
17598;SDS011;8918;52.092;5.232;2023-01-05T02:43:21;28.77;;;4.73;;
17598;SDS011;8918;52.092;5.232;2023-01-05T02:45:47;26.00;;;4.80;;
17598;SDS011;8918;52.092;5.232;2023-01-05T02:48:13;24.03;;;5.30;;
17598;SDS011;8918;52.092;5.232;2023-01-05T02:50:41;29.27;;;5.13;;
17598;SDS011;8918;52.092;5.232;2023-01-05T02:55:54;18.67;;;4.73;;
17598;SDS011;8918;52.092;5.232;2023-01-05T02:58:30;27.17;;;5.57;;
17598;SDS011;8918;52.092;5.232;2023-01-05T03:01:06;28.97;;;5.30;;
17598;SDS011;8918;52.092;5.232;2023-01-05T03:03:37;23.70;;;4.73;;
17598;SDS011;8918;52.092;5.232;2023-01-05T03:06:10;22.70;;;4.90;;
17598;SDS011;8918;52.092;5.232;2023-01-05T03:08:48;26.67;;;5.20;;
17598;SDS011;8918;52.092;5.232;2023-01-05T03:11:32;24.73;;;4.47;;
17598;SDS011;8918;52.092;5.232;2023-01-05T03:14:44;24.20;;;4.43;;
17598;SDS011;8918;52.092;5.232;2023-01-05T03:17:14;23.97;;;4.80;;
17598;SDS011;8918;52.092;5.232;2023-01-05T03:19:44;22.73;;;4.83;;
17598;SDS011;8918;52.092;5.232;2023-01-05T03:22:12;22.53;;;4.60;;
17598;SDS011;8918;52.092;5.232;2023-01-05T03:25:04;23.20;;;5.13;;
17598;SDS011;8918;52.092;5.232;2023-01-05T03:27:50;20.97;;;4.97;;
17598;SDS011;8918;52.092;5.232;2023-01-05T03:30:50;23.97;;;4.40;;
17598;SDS011;8918;52.092;5.232;2023-01-05T03:37:18;27.90;;;4.90;;
17598;SDS011;8918;52.092;5.232;2023-01-05T03:39:51;24.00;;;5.27;;
17598;SDS011;8918;52.092;5.232;2023-01-05T03:42:17;27.37;;;4.80;;
17598;SDS011;8918;52.092;5.232;2023-01-05T03:44:44;23.50;;;4.50;;
17598;SDS011;8918;52.092;5.232;2023-01-05T03:47:10;27.13;;;4.93;;
17598;SDS011;8918;52.092;5.232;2023-01-05T03:49:38;21.27;;;4.40;;
17598;SDS011;8918;52.092;5.232;2023-01-05T03:52:03;26.27;;;4.27;;
17598;SDS011;8918;52.092;5.232;2023-01-05T03:54:29;22.33;;;4.63;;
17598;SDS011;8918;52.092;5.232;2023-01-05T03:56:55;23.27;;;4.73;;
17598;SDS011;8918;52.092;5.232;2023-01-05T03:59:20;24.20;;;4.80;;
17598;SDS011;8918;52.092;5.232;2023-01-05T04:01:46;27.30;;;5.23;;
17598;SDS011;8918;52.092;5.232;2023-01-05T04:04:12;36.43;;;5.30;;
17598;SDS011;8918;52.092;5.232;2023-01-05T04:06:37;27.20;;;5.17;;
17598;SDS011;8918;52.092;5.232;2023-01-05T04:09:03;27.93;;;4.90;;
17598;SDS011;8918;52.092;5.232;2023-01-05T04:11:28;21.33;;;4.93;;
17598;SDS011;8918;52.092;5.232;2023-01-05T04:13:54;21.80;;;4.23;;
17598;SDS011;8918;52.092;5.232;2023-01-05T04:16:19;26.73;;;4.13;;
17598;SDS011;8918;52.092;5.232;2023-01-05T04:18:45;29.33;;;4.93;;
17598;SDS011;8918;52.092;5.232;2023-01-05T04:21:11;24.63;;;5.20;;
17598;SDS011;8918;52.092;5.232;2023-01-05T04:23:36;19.20;;;4.37;;
17598;SDS011;8918;52.092;5.232;2023-01-05T04:26:02;23.87;;;4.97;;
17598;SDS011;8918;52.092;5.232;2023-01-05T04:28:28;23.23;;;4.60;;
17598;SDS011;8918;52.092;5.232;2023-01-05T04:30:54;23.07;;;4.60;;
17598;SDS011;8918;52.092;5.232;2023-01-05T04:33:20;30.43;;;4.97;;
17598;SDS011;8918;52.092;5.232;2023-01-05T04:35:47;27.93;;;5.00;;
17598;SDS011;8918;52.092;5.232;2023-01-05T04:38:12;22.73;;;4.40;;
17598;SDS011;8918;52.092;5.232;2023-01-05T04:40:38;24.57;;;5.13;;
17598;SDS011;8918;52.092;5.232;2023-01-05T04:43:04;28.50;;;5.30;;
17598;SDS011;8918;52.092;5.232;2023-01-05T04:45:30;25.47;;;4.90;;
17598;SDS011;8918;52.092;5.232;2023-01-05T04:47:56;29.33;;;5.43;;
17598;SDS011;8918;52.092;5.232;2023-01-05T04:50:21;19.17;;;4.57;;
17598;SDS011;8918;52.092;5.232;2023-01-05T04:52:47;26.37;;;4.73;;
17598;SDS011;8918;52.092;5.232;2023-01-05T04:55:13;21.27;;;3.93;;
17598;SDS011;8918;52.092;5.232;2023-01-05T04:57:38;28.80;;;5.83;;
17598;SDS011;8918;52.092;5.232;2023-01-05T05:00:04;20.27;;;4.47;;
17598;SDS011;8918;52.092;5.232;2023-01-05T05:02:30;26.57;;;4.80;;
17598;SDS011;8918;52.092;5.232;2023-01-05T05:04:57;26.20;;;5.30;;
17598;SDS011;8918;52.092;5.232;2023-01-05T05:07:22;24.87;;;4.93;;
17598;SDS011;8918;52.092;5.232;2023-01-05T05:09:48;26.03;;;5.47;;
17598;SDS011;8918;52.092;5.232;2023-01-05T05:12:13;23.60;;;4.50;;
17598;SDS011;8918;52.092;5.232;2023-01-05T05:14:39;28.40;;;5.10;;
17598;SDS011;8918;52.092;5.232;2023-01-05T05:17:05;27.10;;;5.00;;
17598;SDS011;8918;52.092;5.232;2023-01-05T05:19:31;26.37;;;5.03;;
17598;SDS011;8918;52.092;5.232;2023-01-05T05:21:56;25.43;;;5.30;;
17598;SDS011;8918;52.092;5.232;2023-01-05T05:24:22;24.60;;;5.20;;
17598;SDS011;8918;52.092;5.232;2023-01-05T05:26:48;24.10;;;5.27;;
17598;SDS011;8918;52.092;5.232;2023-01-05T05:29:13;22.63;;;4.03;;
17598;SDS011;8918;52.092;5.232;2023-01-05T05:31:39;26.73;;;4.63;;
17598;SDS011;8918;52.092;5.232;2023-01-05T05:34:04;32.23;;;5.23;;
17598;SDS011;8918;52.092;5.232;2023-01-05T05:36:30;22.97;;;4.70;;
17598;SDS011;8918;52.092;5.232;2023-01-05T05:38:56;28.93;;;5.23;;
17598;SDS011;8918;52.092;5.232;2023-01-05T05:41:22;26.63;;;5.53;;
17598;SDS011;8918;52.092;5.232;2023-01-05T05:43:49;23.83;;;4.90;;
17598;SDS011;8918;52.092;5.232;2023-01-05T05:46:14;27.73;;;5.00;;
17598;SDS011;8918;52.092;5.232;2023-01-05T05:48:40;24.57;;;4.63;;
17598;SDS011;8918;52.092;5.232;2023-01-05T05:51:06;22.10;;;4.97;;
17598;SDS011;8918;52.092;5.232;2023-01-05T05:53:32;28.23;;;5.20;;
17598;SDS011;8918;52.092;5.232;2023-01-05T05:55:58;25.70;;;4.77;;
17598;SDS011;8918;52.092;5.232;2023-01-05T05:58:23;27.93;;;5.10;;
17598;SDS011;8918;52.092;5.232;2023-01-05T06:00:49;26.70;;;5.10;;
17598;SDS011;8918;52.092;5.232;2023-01-05T06:03:15;26.93;;;5.33;;
17598;SDS011;8918;52.092;5.232;2023-01-05T06:05:40;30.93;;;5.43;;
17598;SDS011;8918;52.092;5.232;2023-01-05T06:08:06;24.47;;;4.70;;
17598;SDS011;8918;52.092;5.232;2023-01-05T06:10:31;30.67;;;4.87;;
17598;SDS011;8918;52.092;5.232;2023-01-05T06:12:57;23.60;;;4.63;;
17598;SDS011;8918;52.092;5.232;2023-01-05T06:15:23;29.13;;;5.47;;
17598;SDS011;8918;52.092;5.232;2023-01-05T06:17:49;20.27;;;4.40;;
17598;SDS011;8918;52.092;5.232;2023-01-05T06:20:14;21.17;;;4.20;;
17598;SDS011;8918;52.092;5.232;2023-01-05T06:22:41;23.03;;;4.57;;
17598;SDS011;8918;52.092;5.232;2023-01-05T06:25:07;23.17;;;4.93;;
17598;SDS011;8918;52.092;5.232;2023-01-05T06:27:33;24.83;;;5.07;;
17598;SDS011;8918;52.092;5.232;2023-01-05T06:30:00;27.80;;;4.93;;
17598;SDS011;8918;52.092;5.232;2023-01-05T06:32:25;32.40;;;5.40;;
17598;SDS011;8918;52.092;5.232;2023-01-05T06:34:51;25.40;;;5.10;;
17598;SDS011;8918;52.092;5.232;2023-01-05T06:37:16;33.87;;;5.07;;
17598;SDS011;8918;52.092;5.232;2023-01-05T06:39:42;28.47;;;5.60;;
17598;SDS011;8918;52.092;5.232;2023-01-05T06:42:08;30.53;;;5.00;;
17598;SDS011;8918;52.092;5.232;2023-01-05T06:44:34;31.60;;;5.73;;
17598;SDS011;8918;52.092;5.232;2023-01-05T06:47:00;29.80;;;5.60;;
17598;SDS011;8918;52.092;5.232;2023-01-05T06:49:25;27.73;;;4.97;;
17598;SDS011;8918;52.092;5.232;2023-01-05T06:51:51;27.00;;;5.33;;
17598;SDS011;8918;52.092;5.232;2023-01-05T06:54:17;29.60;;;5.07;;
17598;SDS011;8918;52.092;5.232;2023-01-05T06:56:42;24.83;;;5.20;;
17598;SDS011;8918;52.092;5.232;2023-01-05T06:59:09;25.67;;;5.33;;
17598;SDS011;8918;52.092;5.232;2023-01-05T07:01:36;23.73;;;4.67;;
17598;SDS011;8918;52.092;5.232;2023-01-05T07:04:02;27.47;;;5.63;;
17598;SDS011;8918;52.092;5.232;2023-01-05T07:06:27;24.73;;;4.63;;
17598;SDS011;8918;52.092;5.232;2023-01-05T07:08:53;21.47;;;5.03;;
17598;SDS011;8918;52.092;5.232;2023-01-05T07:11:19;23.43;;;4.27;;
17598;SDS011;8918;52.092;5.232;2023-01-05T07:13:48;28.13;;;5.13;;
17598;SDS011;8918;52.092;5.232;2023-01-05T07:16:14;26.07;;;5.47;;
17598;SDS011;8918;52.092;5.232;2023-01-05T07:18:41;28.90;;;4.97;;
17598;SDS011;8918;52.092;5.232;2023-01-05T07:21:07;29.57;;;4.93;;
17598;SDS011;8918;52.092;5.232;2023-01-05T07:23:32;21.63;;;4.80;;
17598;SDS011;8918;52.092;5.232;2023-01-05T07:26:01;26.00;;;5.00;;
17598;SDS011;8918;52.092;5.232;2023-01-05T07:28:28;32.43;;;5.90;;
17598;SDS011;8918;52.092;5.232;2023-01-05T07:30:53;31.30;;;4.87;;
17598;SDS011;8918;52.092;5.232;2023-01-05T07:33:19;28.60;;;5.23;;
17598;SDS011;8918;52.092;5.232;2023-01-05T07:35:45;25.57;;;5.27;;
17598;SDS011;8918;52.092;5.232;2023-01-05T07:38:10;28.83;;;5.13;;
17598;SDS011;8918;52.092;5.232;2023-01-05T07:40:36;22.47;;;4.73;;
17598;SDS011;8918;52.092;5.232;2023-01-05T07:43:01;27.07;;;4.80;;
17598;SDS011;8918;52.092;5.232;2023-01-05T07:45:27;27.50;;;5.60;;
17598;SDS011;8918;52.092;5.232;2023-01-05T07:47:52;23.43;;;4.83;;
17598;SDS011;8918;52.092;5.232;2023-01-05T07:50:18;23.60;;;4.40;;
17598;SDS011;8918;52.092;5.232;2023-01-05T07:52:45;23.67;;;4.63;;
17598;SDS011;8918;52.092;5.232;2023-01-05T07:55:10;28.20;;;5.13;;
17598;SDS011;8918;52.092;5.232;2023-01-05T07:57:36;23.73;;;5.00;;
17598;SDS011;8918;52.092;5.232;2023-01-05T08:00:02;23.20;;;4.80;;
17598;SDS011;8918;52.092;5.232;2023-01-05T08:02:28;23.43;;;5.13;;
17598;SDS011;8918;52.092;5.232;2023-01-05T08:04:53;30.77;;;5.13;;
17598;SDS011;8918;52.092;5.232;2023-01-05T08:07:19;23.53;;;5.17;;
17598;SDS011;8918;52.092;5.232;2023-01-05T08:09:45;22.57;;;5.27;;
17598;SDS011;8918;52.092;5.232;2023-01-05T08:12:29;24.30;;;4.83;;
17598;SDS011;8918;52.092;5.232;2023-01-05T08:14:55;24.90;;;5.53;;
17598;SDS011;8918;52.092;5.232;2023-01-05T08:17:21;22.43;;;4.73;;
17598;SDS011;8918;52.092;5.232;2023-01-05T08:19:47;23.77;;;5.17;;
17598;SDS011;8918;52.092;5.232;2023-01-05T08:22:12;21.50;;;4.77;;
17598;SDS011;8918;52.092;5.232;2023-01-05T08:24:38;25.67;;;4.73;;
17598;SDS011;8918;52.092;5.232;2023-01-05T08:27:04;24.30;;;5.77;;
17598;SDS011;8918;52.092;5.232;2023-01-05T08:29:29;28.53;;;5.13;;
17598;SDS011;8918;52.092;5.232;2023-01-05T08:31:55;27.73;;;5.23;;
17598;SDS011;8918;52.092;5.232;2023-01-05T08:34:21;20.87;;;4.50;;
17598;SDS011;8918;52.092;5.232;2023-01-05T08:36:46;23.57;;;4.90;;
17598;SDS011;8918;52.092;5.232;2023-01-05T08:39:12;27.57;;;4.63;;
17598;SDS011;8918;52.092;5.232;2023-01-05T08:41:38;22.83;;;4.33;;
17598;SDS011;8918;52.092;5.232;2023-01-05T08:44:05;24.40;;;4.90;;
17598;SDS011;8918;52.092;5.232;2023-01-05T08:46:34;28.70;;;5.43;;
17598;SDS011;8918;52.092;5.232;2023-01-05T08:49:01;31.03;;;4.90;;
17598;SDS011;8918;52.092;5.232;2023-01-05T08:51:29;26.57;;;5.50;;
17598;SDS011;8918;52.092;5.232;2023-01-05T08:53:55;29.57;;;5.93;;
17598;SDS011;8918;52.092;5.232;2023-01-05T08:56:21;29.20;;;5.40;;
17598;SDS011;8918;52.092;5.232;2023-01-05T08:58:49;22.57;;;4.93;;
17598;SDS011;8918;52.092;5.232;2023-01-05T09:01:16;26.27;;;5.80;;
17598;SDS011;8918;52.092;5.232;2023-01-05T09:03:42;30.57;;;5.67;;
17598;SDS011;8918;52.092;5.232;2023-01-05T09:06:08;33.00;;;7.23;;
17598;SDS011;8918;52.092;5.232;2023-01-05T09:08:36;29.27;;;6.37;;
17598;SDS011;8918;52.092;5.232;2023-01-05T09:11:10;25.40;;;5.90;;
17598;SDS011;8918;52.092;5.232;2023-01-05T09:13:44;26.87;;;4.83;;
17598;SDS011;8918;52.092;5.232;2023-01-05T09:16:14;22.90;;;4.67;;
17598;SDS011;8918;52.092;5.232;2023-01-05T09:18:41;31.20;;;5.20;;
17598;SDS011;8918;52.092;5.232;2023-01-05T09:21:08;27.03;;;4.70;;
17598;SDS011;8918;52.092;5.232;2023-01-05T09:23:34;26.20;;;4.90;;
17598;SDS011;8918;52.092;5.232;2023-01-05T09:26:04;21.90;;;5.03;;
17598;SDS011;8918;52.092;5.232;2023-01-05T09:28:34;26.23;;;5.67;;
17598;SDS011;8918;52.092;5.232;2023-01-05T09:31:11;16.47;;;4.20;;
17598;SDS011;8918;52.092;5.232;2023-01-05T09:33:41;24.60;;;5.07;;
17598;SDS011;8918;52.092;5.232;2023-01-05T09:36:08;22.03;;;4.77;;
17598;SDS011;8918;52.092;5.232;2023-01-05T09:38:34;21.90;;;4.63;;
17598;SDS011;8918;52.092;5.232;2023-01-05T09:43:48;23.17;;;4.93;;
17598;SDS011;8918;52.092;5.232;2023-01-05T09:46:17;24.60;;;4.67;;
17598;SDS011;8918;52.092;5.232;2023-01-05T09:48:49;21.00;;;4.27;;
17598;SDS011;8918;52.092;5.232;2023-01-05T09:51:19;21.20;;;4.47;;
17598;SDS011;8918;52.092;5.232;2023-01-05T09:53:45;24.93;;;4.90;;
17598;SDS011;8918;52.092;5.232;2023-01-05T09:56:14;22.03;;;4.90;;
17598;SDS011;8918;52.092;5.232;2023-01-05T09:58:51;28.03;;;4.37;;
17598;SDS011;8918;52.092;5.232;2023-01-05T10:01:19;22.90;;;4.50;;
17598;SDS011;8918;52.092;5.232;2023-01-05T10:04:02;21.07;;;4.63;;
17598;SDS011;8918;52.092;5.232;2023-01-05T10:06:33;18.93;;;4.07;;
17598;SDS011;8918;52.092;5.232;2023-01-05T10:09:03;22.13;;;4.77;;
17598;SDS011;8918;52.092;5.232;2023-01-05T10:11:43;21.07;;;4.23;;
17598;SDS011;8918;52.092;5.232;2023-01-05T10:14:53;26.03;;;4.63;;
17598;SDS011;8918;52.092;5.232;2023-01-05T10:17:25;21.37;;;4.27;;
17598;SDS011;8918;52.092;5.232;2023-01-05T10:19:53;17.10;;;4.30;;
17598;SDS011;8918;52.092;5.232;2023-01-05T10:22:21;22.37;;;4.57;;
17598;SDS011;8918;52.092;5.232;2023-01-05T10:27:56;20.97;;;4.27;;
17598;SDS011;8918;52.092;5.232;2023-01-05T10:30:45;22.47;;;4.53;;
17598;SDS011;8918;52.092;5.232;2023-01-05T10:33:24;25.43;;;4.57;;
17598;SDS011;8918;52.092;5.232;2023-01-05T10:36:06;22.23;;;4.77;;
17598;SDS011;8918;52.092;5.232;2023-01-05T10:41:37;20.70;;;4.00;;
17598;SDS011;8918;52.092;5.232;2023-01-05T10:46:44;25.97;;;4.77;;
17598;SDS011;8918;52.092;5.232;2023-01-05T10:49:17;21.63;;;4.40;;
17598;SDS011;8918;52.092;5.232;2023-01-05T10:51:45;24.20;;;5.27;;
17598;SDS011;8918;52.092;5.232;2023-01-05T10:54:19;19.17;;;4.30;;
17598;SDS011;8918;52.092;5.232;2023-01-05T11:02:33;22.27;;;4.77;;
17598;SDS011;8918;52.092;5.232;2023-01-05T11:05:45;20.53;;;4.33;;
17598;SDS011;8918;52.092;5.232;2023-01-05T11:07:54;22.80;;;5.00;;
17598;SDS011;8918;52.092;5.232;2023-01-05T11:10:30;23.20;;;4.60;;
17598;SDS011;8918;52.092;5.232;2023-01-05T11:15:39;24.53;;;5.20;;
17598;SDS011;8918;52.092;5.232;2023-01-05T11:18:18;24.20;;;5.30;;
17598;SDS011;8918;52.092;5.232;2023-01-05T11:23:36;20.87;;;4.43;;
17598;SDS011;8918;52.092;5.232;2023-01-05T11:26:25;19.17;;;4.80;;
17598;SDS011;8918;52.092;5.232;2023-01-05T11:31:26;20.30;;;4.67;;
17598;SDS011;8918;52.092;5.232;2023-01-05T11:33:59;26.17;;;4.47;;
17598;SDS011;8918;52.092;5.232;2023-01-05T11:36:32;19.77;;;5.40;;
17598;SDS011;8918;52.092;5.232;2023-01-05T11:38:58;28.83;;;5.33;;
17598;SDS011;8918;52.092;5.232;2023-01-05T11:41:24;24.00;;;5.30;;
17598;SDS011;8918;52.092;5.232;2023-01-05T11:43:50;22.03;;;4.63;;
17598;SDS011;8918;52.092;5.232;2023-01-05T11:46:18;24.23;;;4.67;;
17598;SDS011;8918;52.092;5.232;2023-01-05T11:48:52;25.00;;;5.23;;
17598;SDS011;8918;52.092;5.232;2023-01-05T11:51:33;26.17;;;5.33;;
17598;SDS011;8918;52.092;5.232;2023-01-05T11:54:00;29.77;;;5.40;;
17598;SDS011;8918;52.092;5.232;2023-01-05T11:56:26;23.10;;;5.47;;
17598;SDS011;8918;52.092;5.232;2023-01-05T11:58:52;20.57;;;4.67;;
17598;SDS011;8918;52.092;5.232;2023-01-05T12:04:04;21.27;;;4.50;;
17598;SDS011;8918;52.092;5.232;2023-01-05T12:09:51;18.37;;;4.13;;
17598;SDS011;8918;52.092;5.232;2023-01-05T12:15:09;28.27;;;5.23;;
17598;SDS011;8918;52.092;5.232;2023-01-05T12:17:59;24.40;;;4.70;;
17598;SDS011;8918;52.092;5.232;2023-01-05T12:28:48;22.23;;;4.80;;
17598;SDS011;8918;52.092;5.232;2023-01-05T12:31:48;24.33;;;5.03;;
17598;SDS011;8918;52.092;5.232;2023-01-05T12:45:45;19.57;;;4.23;;
17598;SDS011;8918;52.092;5.232;2023-01-05T12:48:31;22.63;;;4.50;;
17598;SDS011;8918;52.092;5.232;2023-01-05T12:51:18;23.27;;;4.60;;
17598;SDS011;8918;52.092;5.232;2023-01-05T12:53:53;18.87;;;4.63;;
17598;SDS011;8918;52.092;5.232;2023-01-05T12:59:20;19.00;;;4.27;;
17598;SDS011;8918;52.092;5.232;2023-01-05T13:01:55;17.13;;;3.93;;
17598;SDS011;8918;52.092;5.232;2023-01-05T13:07:11;23.40;;;4.87;;
17598;SDS011;8918;52.092;5.232;2023-01-05T13:09:51;21.53;;;4.87;;
17598;SDS011;8918;52.092;5.232;2023-01-05T13:12:23;20.17;;;4.60;;
17598;SDS011;8918;52.092;5.232;2023-01-05T13:14:59;23.57;;;5.07;;
17598;SDS011;8918;52.092;5.232;2023-01-05T13:17:36;20.23;;;4.73;;
17598;SDS011;8918;52.092;5.232;2023-01-05T13:20:18;21.60;;;4.73;;
17598;SDS011;8918;52.092;5.232;2023-01-05T13:22:58;22.80;;;5.27;;
17598;SDS011;8918;52.092;5.232;2023-01-05T13:25:28;27.37;;;5.23;;
17598;SDS011;8918;52.092;5.232;2023-01-05T13:27:59;20.37;;;4.93;;
17598;SDS011;8918;52.092;5.232;2023-01-05T13:30:28;22.80;;;4.70;;
17598;SDS011;8918;52.092;5.232;2023-01-05T13:33:01;23.70;;;5.00;;
17598;SDS011;8918;52.092;5.232;2023-01-05T13:52:21;22.73;;;5.30;;
17598;SDS011;8918;52.092;5.232;2023-01-05T13:54:53;26.53;;;5.33;;
17598;SDS011;8918;52.092;5.232;2023-01-05T13:57:26;27.30;;;5.43;;
17598;SDS011;8918;52.092;5.232;2023-01-05T13:59:57;30.70;;;5.43;;
17598;SDS011;8918;52.092;5.232;2023-01-05T14:04:57;29.77;;;5.40;;
17598;SDS011;8918;52.092;5.232;2023-01-05T14:07:23;29.93;;;5.57;;
17598;SDS011;8918;52.092;5.232;2023-01-05T14:09:51;29.80;;;5.93;;
17598;SDS011;8918;52.092;5.232;2023-01-05T14:17:50;31.33;;;5.33;;
17598;SDS011;8918;52.092;5.232;2023-01-05T14:20:29;21.73;;;5.10;;
17598;SDS011;8918;52.092;5.232;2023-01-05T14:22:55;26.30;;;5.20;;
17598;SDS011;8918;52.092;5.232;2023-01-05T14:28:15;28.87;;;5.47;;
17598;SDS011;8918;52.092;5.232;2023-01-05T14:39:02;30.57;;;5.03;;
17598;SDS011;8918;52.092;5.232;2023-01-05T14:41:31;30.40;;;6.90;;
17598;SDS011;8918;52.092;5.232;2023-01-05T14:43:59;28.60;;;5.83;;
17598;SDS011;8918;52.092;5.232;2023-01-05T14:46:44;33.03;;;6.57;;
17598;SDS011;8918;52.092;5.232;2023-01-05T14:49:31;24.43;;;5.17;;
17598;SDS011;8918;52.092;5.232;2023-01-05T14:52:01;29.73;;;5.30;;
17598;SDS011;8918;52.092;5.232;2023-01-05T15:00:14;30.00;;;6.53;;
17598;SDS011;8918;52.092;5.232;2023-01-05T15:06:04;37.83;;;5.53;;
17598;SDS011;8918;52.092;5.232;2023-01-05T15:08:46;32.13;;;5.90;;
17598;SDS011;8918;52.092;5.232;2023-01-05T15:11:38;30.83;;;5.80;;
17598;SDS011;8918;52.092;5.232;2023-01-05T15:14:18;29.53;;;6.30;;
17598;SDS011;8918;52.092;5.232;2023-01-05T15:39:22;35.70;;;5.97;;
17598;SDS011;8918;52.092;5.232;2023-01-05T15:41:50;34.13;;;6.40;;
17598;SDS011;8918;52.092;5.232;2023-01-05T15:44:19;31.23;;;6.47;;
17598;SDS011;8918;52.092;5.232;2023-01-05T15:46:46;43.43;;;6.37;;
17598;SDS011;8918;52.092;5.232;2023-01-05T15:49:20;28.80;;;5.30;;
17598;SDS011;8918;52.092;5.232;2023-01-05T15:51:49;24.23;;;5.23;;
17598;SDS011;8918;52.092;5.232;2023-01-05T15:54:24;21.50;;;4.37;;
17598;SDS011;8918;52.092;5.232;2023-01-05T15:56:51;30.73;;;5.27;;
17598;SDS011;8918;52.092;5.232;2023-01-05T15:59:22;22.37;;;4.60;;
17598;SDS011;8918;52.092;5.232;2023-01-05T16:01:50;20.83;;;4.60;;
17598;SDS011;8918;52.092;5.232;2023-01-05T16:04:15;26.33;;;5.50;;
17598;SDS011;8918;52.092;5.232;2023-01-05T16:06:45;22.93;;;4.63;;
17598;SDS011;8918;52.092;5.232;2023-01-05T16:09:34;24.60;;;5.00;;
17598;SDS011;8918;52.092;5.232;2023-01-05T16:14:47;23.47;;;4.30;;
17598;SDS011;8918;52.092;5.232;2023-01-05T16:17:19;23.33;;;4.77;;
17598;SDS011;8918;52.092;5.232;2023-01-05T16:19:47;20.50;;;3.67;;
17598;SDS011;8918;52.092;5.232;2023-01-05T16:22:20;22.33;;;4.10;;
17598;SDS011;8918;52.092;5.232;2023-01-05T16:24:56;20.77;;;4.47;;
17598;SDS011;8918;52.092;5.232;2023-01-05T16:27:23;21.00;;;4.17;;
17598;SDS011;8918;52.092;5.232;2023-01-05T16:29:49;19.50;;;3.73;;
17598;SDS011;8918;52.092;5.232;2023-01-05T16:32:29;21.53;;;4.43;;
17598;SDS011;8918;52.092;5.232;2023-01-05T16:43:16;27.77;;;6.57;;
17598;SDS011;8918;52.092;5.232;2023-01-05T16:45:47;34.37;;;7.20;;
17598;SDS011;8918;52.092;5.232;2023-01-05T16:50:58;30.20;;;7.57;;
17598;SDS011;8918;52.092;5.232;2023-01-05T16:53:29;21.57;;;7.77;;
17598;SDS011;8918;52.092;5.232;2023-01-05T16:55:55;27.37;;;8.33;;
17598;SDS011;8918;52.092;5.232;2023-01-05T17:00:53;21.97;;;7.00;;
17598;SDS011;8918;52.092;5.232;2023-01-05T17:03:37;20.70;;;7.20;;
17598;SDS011;8918;52.092;5.232;2023-01-05T17:06:04;24.57;;;7.37;;
17598;SDS011;8918;52.092;5.232;2023-01-05T17:08:31;22.80;;;7.13;;
17598;SDS011;8918;52.092;5.232;2023-01-05T17:11:00;28.37;;;7.50;;
17598;SDS011;8918;52.092;5.232;2023-01-05T17:13:34;24.93;;;7.67;;
17598;SDS011;8918;52.092;5.232;2023-01-05T17:16:05;25.33;;;8.53;;
17598;SDS011;8918;52.092;5.232;2023-01-05T17:18:35;23.10;;;8.53;;
17598;SDS011;8918;52.092;5.232;2023-01-05T17:21:00;24.10;;;8.80;;
17598;SDS011;8918;52.092;5.232;2023-01-05T17:23:35;23.20;;;8.93;;
17598;SDS011;8918;52.092;5.232;2023-01-05T17:26:12;23.23;;;9.80;;
17598;SDS011;8918;52.092;5.232;2023-01-05T17:28:41;31.83;;;11.57;;
17598;SDS011;8918;52.092;5.232;2023-01-05T17:31:07;28.33;;;10.43;;
17598;SDS011;8918;52.092;5.232;2023-01-05T17:33:32;29.00;;;12.33;;
17598;SDS011;8918;52.092;5.232;2023-01-05T17:35:58;34.63;;;12.97;;
17598;SDS011;8918;52.092;5.232;2023-01-05T17:38:25;32.47;;;12.97;;
17598;SDS011;8918;52.092;5.232;2023-01-05T17:40:51;37.07;;;14.53;;
17598;SDS011;8918;52.092;5.232;2023-01-05T17:43:16;33.10;;;14.10;;
17598;SDS011;8918;52.092;5.232;2023-01-05T17:45:42;35.50;;;14.70;;
17598;SDS011;8918;52.092;5.232;2023-01-05T17:48:09;32.80;;;15.20;;
17598;SDS011;8918;52.092;5.232;2023-01-05T17:50:35;33.43;;;15.17;;
17598;SDS011;8918;52.092;5.232;2023-01-05T17:53:02;33.00;;;15.90;;
17598;SDS011;8918;52.092;5.232;2023-01-05T17:55:28;35.80;;;16.87;;
17598;SDS011;8918;52.092;5.232;2023-01-05T17:57:55;38.50;;;17.40;;